Time;durP1;ratioP1;P1;durP2;ratioP2;P2;SDS_P1;SDS_P2;PMS_P1;PMS_P2;Temp;Humidity;BMP_temperature;BMP_pressure;BME280_temperature;BME280_humidity;BME280_pressure;Samples;Min_cycle;Max_cycle;Signal;HPM_P1;HPM_P2
2021/11/18 00:01:53;;;;;;;7.20;5.33;;;;;;;4.56;75.26;98495.94;6213466;28;20276;-66
2021/11/18 00:04:55;;;;;;;7.17;5.40;;;;;;;4.49;75.27;98490.13;6211843;28;20193;-67
2021/11/18 00:07:58;;;;;;;6.37;5.20;;;;;;;4.47;75.06;98494.56;6217063;28;20208;-66
2021/11/18 00:11:04;;;;;;;6.83;5.80;;;;;;;4.44;75.02;98506.00;6217969;28;20200;-66
2021/11/18 00:14:07;;;;;;;6.60;5.30;;;;;;;4.43;75.50;98501.69;6217149;28;20231;-66
2021/11/18 00:17:11;;;;;;;5.30;4.63;;;;;;;4.53;75.13;98511.75;6199294;28;20267;-66
2021/11/18 00:20:15;;;;;;;6.20;5.30;;;;;;;4.54;75.04;98503.00;6216877;28;20693;-67
2021/11/18 00:23:19;;;;;;;6.00;5.40;;;;;;;4.56;74.58;98506.41;6218179;28;20576;-65
2021/11/18 00:26:24;;;;;;;6.00;4.90;;;;;;;4.56;74.74;98495.94;6219871;28;20197;-66
2021/11/18 00:29:26;;;;;;;5.77;5.07;;;;;;;4.60;74.14;98497.50;6221485;28;20231;-68
2021/11/18 00:32:28;;;;;;;5.97;5.00;;;;;;;4.65;74.14;98495.53;6221181;28;20672;-67
2021/11/18 00:35:32;;;;;;;5.10;4.50;;;;;;;4.69;73.59;98510.19;6222772;28;20699;-66
2021/11/18 00:38:36;;;;;;;4.83;4.33;;;;;;;4.73;73.44;98509.13;6221142;28;20738;-66
2021/11/18 00:41:38;;;;;;;7.87;4.93;;;;;;;4.78;72.96;98501.94;6222000;28;20216;-66
2021/11/18 00:44:41;;;;;;;8.03;5.00;;;;;;;4.80;73.29;98526.25;6218623;28;20771;-66
2021/11/18 00:47:43;;;;;;;5.90;4.87;;;;;;;4.76;73.48;98527.31;6197579;28;20351;-66
2021/11/18 00:50:57;;;;;;;5.43;4.57;;;;;;;4.75;73.91;98516.00;6222275;28;20192;-66
2021/11/18 00:54:08;;;;;;;5.47;4.53;;;;;;;4.75;73.30;98523.84;6222429;28;20177;-66
2021/11/18 00:57:10;;;;;;;5.53;4.73;;;;;;;4.75;74.05;98538.69;6220853;28;20566;-67
2021/11/18 01:00:16;;;;;;;6.00;4.63;;;;;;;4.78;73.31;98543.78;6220533;28;20691;-67
2021/11/18 01:03:21;;;;;;;5.50;4.23;;;;;;;4.76;73.26;98535.16;6220644;28;20201;-66
2021/11/18 01:06:24;;;;;;;4.67;4.27;;;;;;;4.76;74.10;98551.69;6220320;28;20284;-66
2021/11/18 01:09:26;;;;;;;6.83;5.07;;;;;;;4.88;73.95;98544.22;6220464;28;20286;-66
2021/11/18 01:12:28;;;;;;;5.97;5.00;;;;;;;4.95;73.06;98543.03;6221572;28;20189;-67
2021/11/18 01:15:33;;;;;;;5.50;4.87;;;;;;;4.94;73.61;98550.03;6204409;28;20214;-66
2021/11/18 01:18:36;;;;;;;5.00;4.50;;;;;;;4.96;73.28;98534.28;6220708;28;20619;-66
2021/11/18 01:21:40;;;;;;;4.70;4.23;;;;;;;4.96;73.25;98532.50;6219507;28;20212;-67
2021/11/18 01:24:44;;;;;;;6.03;4.73;;;;;;;4.97;73.27;98539.44;6220408;28;20204;-66
2021/11/18 01:27:59;;;;;;;6.83;4.77;;;;;;;5.01;73.63;98546.22;6220348;28;20304;-70
2021/11/18 01:31:04;;;;;;;6.00;4.63;;;;;;;5.01;73.46;98546.22;6219650;28;20251;-66
2021/11/18 01:34:08;;;;;;;7.13;5.97;;;;;;;5.00;72.82;98554.13;6221470;28;20193;-67
2021/11/18 01:37:11;;;;;;;5.90;4.70;;;;;;;5.02;72.53;98547.94;6219244;28;20188;-66
2021/11/18 01:40:18;;;;;;;5.33;4.50;;;;;;;5.01;73.75;98543.59;6219739;28;20197;-67
2021/11/18 01:43:27;;;;;;;5.17;4.63;;;;;;;5.00;73.40;98547.13;6219575;28;20574;-66
2021/11/18 01:46:33;;;;;;;7.27;4.90;;;;;;;5.06;73.08;98544.28;6203847;28;20253;-67
2021/11/18 01:49:45;;;;;;;6.47;4.93;;;;;;;5.12;73.11;98545.75;6219933;28;20220;-67
2021/11/18 01:52:48;;;;;;;5.53;4.43;;;;;;;5.14;72.94;98557.84;6220270;28;20177;-66
2021/11/18 01:55:52;;;;;;;5.47;4.67;;;;;;;5.14;72.85;98551.78;6219683;28;20204;-65
2021/11/18 01:59:03;;;;;;;8.13;4.43;;;;;;;5.20;72.10;98539.25;6219302;28;20211;-67
2021/11/18 02:02:17;;;;;;;5.27;4.20;;;;;;;5.24;71.79;98549.59;6220486;28;20197;-68
2021/11/18 02:05:59;;;;;;;5.00;4.03;;;;;;;5.26;71.87;98553.84;6220417;28;20197;-67
2021/11/18 02:09:02;;;;;;;4.67;4.20;;;;;;;5.25;72.49;98540.81;6219356;28;20216;-67
2021/11/18 02:12:14;;;;;;;4.70;4.00;;;;;;;5.26;72.30;98553.00;6218999;28;20205;-67
2021/11/18 02:15:22;;;;;;;6.13;4.37;;;;;;;5.29;71.48;98545.84;6195456;28;20197;-72
2021/11/18 02:18:31;;;;;;;6.23;4.33;;;;;;;5.29;71.33;98553.69;6203510;28;20287;-67
2021/11/18 02:21:33;;;;;;;4.83;3.93;;;;;;;5.32;71.89;98565.78;6218108;28;20287;-66
2021/11/18 02:24:44;;;;;;;5.73;4.20;;;;;;;5.30;71.79;98570.25;6219175;28;20565;-66
2021/11/18 02:27:49;;;;;;;5.33;4.10;;;;;;;5.30;72.33;98581.56;6218369;28;20236;-67
2021/11/18 02:30:53;;;;;;;5.80;4.90;;;;;;;5.29;72.65;98584.28;6202569;28;20192;-66
2021/11/18 02:33:57;;;;;;;5.33;4.50;;;;;;;5.29;72.50;98586.88;6219078;28;20518;-66
2021/11/18 02:36:59;;;;;;;4.90;4.23;;;;;;;5.30;72.69;98591.19;6218406;28;20206;-66
2021/11/18 02:40:02;;;;;;;5.77;4.63;;;;;;;5.30;72.02;98597.25;6220107;28;20203;-67
2021/11/18 02:43:05;;;;;;;6.17;4.83;;;;;;;5.31;72.11;98595.50;6201736;28;20243;-66
2021/11/18 02:46:09;;;;;;;5.90;4.77;;;;;;;5.30;72.19;98599.88;6213245;28;20238;-66
2021/11/18 02:49:12;;;;;;;5.57;4.83;;;;;;;5.29;72.16;98613.06;6217714;28;20220;-72
2021/11/18 02:52:25;;;;;;;5.27;4.43;;;;;;;5.29;72.17;98613.88;6217563;28;20287;-66
2021/11/18 02:55:30;;;;;;;5.60;4.50;;;;;;;5.29;72.21;98607.81;6218689;28;20203;-67
2021/11/18 02:58:32;;;;;;;6.33;4.90;;;;;;;5.27;73.04;98617.50;6218299;28;20200;-66
2021/11/18 03:01:39;;;;;;;6.40;5.20;;;;;;;5.24;73.53;98615.00;6201321;28;20718;-66
2021/11/18 03:04:41;;;;;;;5.33;4.77;;;;;;;5.18;73.44;98618.75;6219231;28;20201;-67
2021/11/18 03:07:45;;;;;;;6.23;5.47;;;;;;;5.14;74.90;98610.19;6218166;28;20351;-66
2021/11/18 03:10:48;;;;;;;6.70;5.23;;;;;;;5.09;74.90;98612.13;6217814;28;20569;-66
2021/11/18 03:13:51;;;;;;;6.07;5.37;;;;;;;5.07;75.19;98614.00;6217555;28;20279;-68
2021/11/18 03:16:53;;;;;;;7.37;5.90;;;;;;;5.03;75.08;98609.78;6204144;28;20671;-66
2021/11/18 03:19:59;;;;;;;7.30;5.93;;;;;;;5.01;75.46;98606.38;6217653;28;20189;-66
2021/11/18 03:23:02;;;;;;;6.87;5.70;;;;;;;4.96;76.18;98610.97;6217502;28;20204;-66
2021/11/18 03:26:05;;;;;;;7.50;5.87;;;;;;;4.94;76.63;98606.72;6218636;28;20208;-66
2021/11/18 03:29:08;;;;;;;5.63;5.03;;;;;;;4.92;76.50;98612.00;6217375;28;20220;-66
2021/11/18 03:32:11;;;;;;;6.77;5.27;;;;;;;4.86;77.41;98614.91;6217566;28;20195;-66
2021/11/18 03:35:13;;;;;;;8.37;5.57;;;;;;;4.83;77.79;98615.03;6217329;28;20200;-66
2021/11/18 03:38:22;;;;;;;6.93;6.20;;;;;;;4.79;78.61;98614.28;6217813;28;20559;-66
2021/11/18 03:41:38;;;;;;;7.57;6.17;;;;;;;4.79;78.44;98618.69;6218278;28;20205;-66
2021/11/18 03:44:44;;;;;;;6.67;5.97;;;;;;;4.77;78.92;98618.75;6214407;28;20294;-66
2021/11/18 03:47:46;;;;;;;7.53;6.17;;;;;;;4.76;78.27;98626.66;6199937;28;20607;-67
2021/11/18 03:50:49;;;;;;;8.13;5.40;;;;;;;4.76;78.73;98619.66;6217120;28;20192;-66
2021/11/18 03:53:52;;;;;;;6.87;5.70;;;;;;;4.77;78.50;98633.59;6217422;28;20212;-66
2021/11/18 03:56:54;;;;;;;5.63;5.03;;;;;;;4.73;78.70;98630.25;6217425;28;20219;-66
2021/11/18 03:59:57;;;;;;;6.27;4.93;;;;;;;4.72;79.39;98630.31;6220296;28;20192;-66
2021/11/18 04:03:02;;;;;;;8.40;6.80;;;;;;;4.73;78.99;98634.63;6221912;28;20537;-66
2021/11/18 04:06:09;;;;;;;6.77;6.07;;;;;;;4.74;78.68;98644.19;6222009;28;20703;-66
2021/11/18 04:09:34;;;;;;;9.33;7.50;;;;;;;4.73;78.89;98629.41;6223322;28;20560;-66
2021/11/18 04:12:39;;;;;;;8.47;6.03;;;;;;;4.74;79.41;98639.78;6222669;28;20368;-67
2021/11/18 04:15:43;;;;;;;8.77;6.60;;;;;;;4.72;79.04;98633.78;6219700;28;20200;-66
2021/11/18 04:18:50;;;;;;;9.00;7.40;;;;;;;4.72;79.07;98628.53;6221370;28;20223;-67
2021/11/18 04:21:53;;;;;;;9.23;7.23;;;;;;;4.75;78.61;98635.41;6221566;28;20219;-65
2021/11/18 04:24:56;;;;;;;7.87;6.27;;;;;;;4.76;78.05;98632.75;6205726;28;20242;-66
2021/11/18 04:28:00;;;;;;;9.07;7.33;;;;;;;4.79;78.41;98626.53;6222546;28;20226;-66
2021/11/18 04:31:10;;;;;;;9.67;7.93;;;;;;;4.78;77.19;98648.38;6205101;28;20589;-67
2021/11/18 04:34:12;;;;;;;11.93;9.23;;;;;;;4.78;77.27;98637.91;6221012;28;20200;-67
2021/11/18 04:37:14;;;;;;;10.53;8.57;;;;;;;4.77;78.50;98641.44;6221639;28;20196;-66
2021/11/18 04:40:18;;;;;;;9.80;8.17;;;;;;;4.79;78.08;98653.50;6221321;28;20197;-66
2021/11/18 04:43:24;;;;;;;8.93;7.70;;;;;;;4.83;76.35;98651.63;6220891;28;20200;-66
2021/11/18 04:46:31;;;;;;;9.03;7.43;;;;;;;4.84;77.61;98658.56;6210434;28;20232;-66
2021/11/18 04:49:35;;;;;;;11.17;7.77;;;;;;;4.82;78.53;98663.84;6220790;28;20259;-67
2021/11/18 04:52:37;;;;;;;12.57;9.40;;;;;;;4.79;78.28;98650.91;6220794;28;20204;-68
2021/11/18 04:55:39;;;;;;;9.57;7.27;;;;;;;4.77;78.18;98657.97;6220609;28;20230;-66
2021/11/18 04:58:42;;;;;;;9.17;6.73;;;;;;;4.75;78.67;98665.03;6222397;28;20668;-66
2021/11/18 05:01:45;;;;;;;8.30;7.07;;;;;;;4.74;77.98;98660.72;6220671;28;20239;-67
2021/11/18 05:04:49;;;;;;;9.70;7.93;;;;;;;4.73;78.79;98656.41;6220660;28;20575;-66
2021/11/18 05:07:52;;;;;;;10.13;7.50;;;;;;;4.74;78.69;98667.72;6220677;28;20299;-67
2021/11/18 05:10:55;;;;;;;7.83;6.60;;;;;;;4.74;78.36;98673.78;6219369;28;20584;-66
2021/11/18 05:13:58;;;;;;;9.43;7.27;;;;;;;4.75;78.53;98669.41;6220545;28;20204;-66
2021/11/18 05:17:01;;;;;;;7.90;6.80;;;;;;;4.75;78.44;98678.09;6200754;28;20202;-67
2021/11/18 05:20:08;;;;;;;8.03;6.47;;;;;;;4.74;79.33;98688.63;6220308;28;20274;-67
2021/11/18 05:23:11;;;;;;;10.13;7.87;;;;;;;4.74;78.49;98696.47;6220278;28;20264;-66
2021/11/18 05:26:25;;;;;;;11.50;7.83;;;;;;;4.73;78.78;98694.75;6220037;28;20193;-66
2021/11/18 05:29:29;;;;;;;9.13;7.23;;;;;;;4.74;78.93;98699.09;6220388;28;20204;-66
2021/11/18 05:32:32;;;;;;;9.40;7.17;;;;;;;4.75;79.29;98695.56;6220885;28;20200;-67
2021/11/18 05:35:39;;;;;;;8.17;7.20;;;;;;;4.73;79.21;98692.16;6219988;28;20205;-66
2021/11/18 05:38:43;;;;;;;9.23;8.27;;;;;;;4.68;79.89;98702.81;6220105;28;20195;-67
2021/11/18 05:41:45;;;;;;;10.13;8.07;;;;;;;4.67;80.03;98708.09;6220646;28;20203;-67
2021/11/18 05:44:49;;;;;;;9.63;7.63;;;;;;;4.67;79.72;98716.78;6219369;28;20236;-66
2021/11/18 05:47:52;;;;;;;8.67;7.37;;;;;;;4.69;79.67;98712.31;6220695;28;20203;-65
2021/11/18 05:50:58;;;;;;;9.00;7.23;;;;;;;4.68;79.93;98725.50;6219514;28;20669;-66
2021/11/18 05:54:01;;;;;;;9.07;7.60;;;;;;;4.68;79.45;98720.25;6219758;28;20594;-67
2021/11/18 05:57:04;;;;;;;11.30;8.27;;;;;;;4.67;80.36;98729.00;6218969;28;20201;-66
2021/11/18 06:00:10;;;;;;;7.37;6.53;;;;;;;4.61;80.90;98731.84;6219403;28;20201;-67
2021/11/18 06:03:18;;;;;;;8.60;7.33;;;;;;;4.59;80.58;98726.69;6220327;28;20211;-68
2021/11/18 06:06:22;;;;;;;10.40;8.70;;;;;;;4.56;81.45;98741.66;6219339;28;20216;-67
2021/11/18 06:09:25;;;;;;;11.17;8.87;;;;;;;4.61;79.88;98744.91;6218912;28;20212;-67
2021/11/18 06:12:27;;;;;;;9.90;8.17;;;;;;;4.64;80.34;98753.50;6219083;28;20567;-67
2021/11/18 06:15:30;;;;;;;10.33;8.13;;;;;;;4.63;80.08;98754.41;6211832;28;20244;-66
2021/11/18 06:18:32;;;;;;;9.33;7.50;;;;;;;4.61;80.13;98756.22;6218822;28;20569;-67
2021/11/18 06:21:38;;;;;;;8.73;7.83;;;;;;;4.62;79.42;98760.56;6218677;28;20201;-66
2021/11/18 06:24:40;;;;;;;9.73;8.00;;;;;;;4.65;80.37;98773.50;6219263;28;20673;-66
2021/11/18 06:27:45;;;;;;;9.83;7.90;;;;;;;4.65;80.28;98770.91;6218506;28;20318;-67
2021/11/18 06:30:54;;;;;;;9.23;8.10;;;;;;;4.64;81.42;98778.81;6218855;28;20201;-67
2021/11/18 06:33:59;;;;;;;9.40;7.73;;;;;;;4.62;80.84;98778.84;6219753;28;20189;-66
2021/11/18 06:37:01;;;;;;;9.73;8.00;;;;;;;4.63;80.70;98775.34;6218575;28;20751;-67
2021/11/18 06:40:12;;;;;;;9.87;8.23;;;;;;;4.65;80.35;98788.34;6218292;28;20194;-66
2021/11/18 06:43:22;;;;;;;9.00;7.67;;;;;;;4.66;80.58;98803.13;6218616;28;20271;-66
2021/11/18 06:46:27;;;;;;;8.90;7.50;;;;;;;4.65;81.64;98804.03;6200847;28;20245;-66
2021/11/18 06:49:32;;;;;;;8.60;7.30;;;;;;;4.63;81.63;98801.47;6193650;28;20217;-69
2021/11/18 06:52:34;;;;;;;8.50;7.17;;;;;;;4.66;81.31;98806.59;6191096;28;20209;-66
2021/11/18 06:55:36;;;;;;;10.40;7.30;;;;;;;4.67;81.63;98808.31;6193215;28;20209;-66
2021/11/18 06:58:40;;;;;;;8.77;7.47;;;;;;;4.69;80.88;98818.72;6210024;28;20189;-67
2021/11/18 07:01:42;;;;;;;9.30;7.77;;;;;;;4.69;81.83;98819.53;6218484;28;20600;-66
2021/11/18 07:04:49;;;;;;;8.33;6.77;;;;;;;4.71;81.35;98816.84;6219194;28;20204;-66
2021/11/18 07:07:51;;;;;;;8.23;6.53;;;;;;;4.73;81.23;98815.91;6217566;28;20200;-66
2021/11/18 07:10:56;;;;;;;9.53;6.97;;;;;;;4.75;81.23;98821.06;6218537;28;20513;-66
2021/11/18 07:13:59;;;;;;;8.80;7.40;;;;;;;4.75;80.69;98823.69;6217753;28;20199;-67
2021/11/18 07:17:04;;;;;;;9.60;7.73;;;;;;;4.75;81.46;98826.31;6200862;28;20596;-67
2021/11/18 07:20:08;;;;;;;8.73;7.57;;;;;;;4.78;80.54;98831.44;6217469;28;20200;-66
2021/11/18 07:23:11;;;;;;;9.73;6.90;;;;;;;4.80;80.92;98826.97;6218361;28;20277;-67
2021/11/18 07:26:19;;;;;;;8.13;7.30;;;;;;;4.87;80.50;98830.22;6217270;28;20196;-67
2021/11/18 07:29:23;;;;;;;9.97;7.20;;;;;;;4.90;80.41;98819.59;6217250;28;20216;-66
2021/11/18 07:32:25;;;;;;;8.73;7.17;;;;;;;4.95;80.35;98822.91;6216738;28;20291;-67
2021/11/18 07:35:33;;;;;;;9.30;7.70;;;;;;;4.98;79.65;98828.88;6223874;28;20211;-66
2021/11/18 07:38:37;;;;;;;9.10;6.63;;;;;;;5.02;79.47;98824.38;6226342;28;20199;-67
2021/11/18 07:41:40;;;;;;;8.97;7.60;;;;;;;5.08;80.27;98827.59;6225096;28;20286;-66
2021/11/18 07:45:01;;;;;;;10.30;7.90;;;;;;;5.15;79.82;98825.59;6221961;28;20237;-68
2021/11/18 07:48:30;;;;;;;8.70;7.77;;;;;;;5.18;78.96;98823.72;6200636;28;20236;-66
2021/11/18 07:51:34;;;;;;;9.67;7.20;;;;;;;5.24;78.45;98824.38;6224257;28;20215;-66
2021/11/18 07:54:36;;;;;;;7.87;6.67;;;;;;;5.30;78.80;98827.56;6226397;28;20192;-66
2021/11/18 07:57:39;;;;;;;8.40;6.97;;;;;;;5.33;78.14;98826.59;6226304;28;20189;-67
2021/11/18 08:00:44;;;;;;;9.13;7.30;;;;;;;5.37;77.49;98836.03;6224755;28;20188;-65
2021/11/18 08:03:54;;;;;;;7.30;6.50;;;;;;;5.44;77.58;98830.50;6226285;28;20207;-66
2021/11/18 08:07:10;;;;;;;8.53;6.93;;;;;;;5.52;77.74;98827.53;6225022;28;20193;-67
2021/11/18 08:10:13;;;;;;;8.40;7.07;;;;;;;5.58;77.00;98840.41;6225996;28;20215;-67
2021/11/18 08:13:20;;;;;;;7.20;6.20;;;;;;;5.59;76.96;98836.84;6224905;28;20219;-66
2021/11/18 08:16:23;;;;;;;9.00;7.07;;;;;;;5.61;76.62;98837.63;6209542;28;20291;-66
2021/11/18 08:19:30;;;;;;;8.40;6.70;;;;;;;5.62;76.38;98833.25;6224763;28;20185;-67
2021/11/18 08:22:44;;;;;;;8.93;6.63;;;;;;;5.65;76.51;98830.50;6224527;28;20227;-66
2021/11/18 08:25:47;;;;;;;7.67;6.13;;;;;;;5.73;76.40;98836.28;6224937;28;20589;-67
2021/11/18 08:28:51;;;;;;;9.90;7.43;;;;;;;5.76;76.04;98829.16;6224954;28;20220;-66
2021/11/18 08:31:54;;;;;;;7.13;6.43;;;;;;;5.88;75.85;98827.81;6224109;28;20331;-66
2021/11/18 08:35:26;;;;;;;8.03;6.43;;;;;;;5.90;74.65;98825.94;6224586;28;20212;-65
2021/11/18 08:38:28;;;;;;;6.77;5.80;;;;;;;5.98;74.75;98831.75;6224198;28;20676;-66
2021/11/18 08:41:31;;;;;;;6.73;5.63;;;;;;;6.07;74.23;98828.72;6224006;28;20192;-67
2021/11/18 08:44:35;;;;;;;7.93;5.53;;;;;;;6.21;74.40;98833.31;6223110;28;20577;-66
2021/11/18 08:47:39;;;;;;;6.07;5.47;;;;;;;6.32;73.27;98840.72;6197255;28;20202;-66
2021/11/18 08:50:45;;;;;;;7.30;5.03;;;;;;;6.47;72.19;98837.44;6221337;28;20229;-66
2021/11/18 08:53:54;;;;;;;6.33;5.40;;;;;;;6.64;72.56;98834.88;6197510;28;20269;-67
2021/11/18 08:56:58;;;;;;;6.00;5.17;;;;;;;6.75;72.50;98843.09;6211094;28;20667;-66
2021/11/18 09:00:12;;;;;;;6.53;4.90;;;;;;;6.70;71.11;98842.44;6207277;28;20194;-66
2021/11/18 09:03:29;;;;;;;5.20;4.50;;;;;;;6.82;71.55;98834.03;6215561;28;20237;-67
2021/11/18 09:06:32;;;;;;;5.07;4.57;;;;;;;7.01;71.21;98842.72;6220427;28;20201;-66
2021/11/18 09:09:34;;;;;;;6.67;5.27;;;;;;;7.40;70.39;98847.84;6219451;28;20618;-66
2021/11/18 09:12:38;;;;;;;5.27;4.47;;;;;;;7.69;69.08;98840.28;6220164;28;20200;-66
2021/11/18 09:15:41;;;;;;;4.90;4.27;;;;;;;7.87;68.25;98851.69;6215336;28;20734;-66
2021/11/18 09:18:44;;;;;;;6.27;4.73;;;;;;;7.90;66.39;98848.88;6221225;28;20272;-65
2021/11/18 09:21:48;;;;;;;6.43;4.60;;;;;;;7.99;67.31;98851.88;6220068;28;20210;-68
2021/11/18 09:24:56;;;;;;;4.00;3.60;;;;;;;8.03;66.14;98853.44;6220161;28;20603;-66
2021/11/18 09:27:59;;;;;;;5.23;4.20;;;;;;;8.22;65.80;98857.75;6220021;28;20215;-67
2021/11/18 09:31:05;;;;;;;4.23;3.57;;;;;;;8.45;65.35;98857.44;6219076;28;20220;-66
2021/11/18 09:34:08;;;;;;;4.63;4.23;;;;;;;8.43;65.69;98846.13;6219880;28;20265;-67
2021/11/18 09:37:12;;;;;;;3.93;3.30;;;;;;;8.48;65.71;98841.50;6220653;28;20330;-66
2021/11/18 09:40:22;;;;;;;3.60;3.30;;;;;;;8.45;64.95;98847.75;6219263;28;20564;-66
2021/11/18 09:43:56;;;;;;;6.70;3.87;;;;;;;8.56;64.45;98848.97;6219373;28;20206;-66
2021/11/18 09:47:18;;;;;;;3.40;3.10;;;;;;;8.84;63.33;98833.38;6206764;28;20233;-66
2021/11/18 09:50:31;;;;;;;3.83;3.43;;;;;;;8.97;63.17;98838.84;6219154;28;20677;-66
2021/11/18 09:54:29;;;;;;;3.67;3.33;;;;;;;8.90;63.48;98856.72;6220174;28;20201;-66
2021/11/18 09:57:54;;;;;;;3.63;3.27;;;;;;;8.58;65.01;98857.63;6218753;28;20241;-66
2021/11/18 10:01:06;;;;;;;6.17;3.30;;;;;;;8.71;65.26;98856.88;6218544;28;20192;-67
2021/11/18 10:04:37;;;;;;;4.57;3.87;;;;;;;8.78;65.14;98845.06;6218948;28;20201;-66
2021/11/18 10:07:57;;;;;;;3.93;3.30;;;;;;;8.78;64.00;98852.97;6218425;28;20200;-66
2021/11/18 10:11:03;;;;;;;5.63;3.93;;;;;;;8.77;62.75;98851.31;6218337;28;20216;-65
2021/11/18 10:14:43;;;;;;;4.67;3.57;;;;;;;8.60;63.71;98853.97;6218848;28;20203;-66
2021/11/18 10:17:57;;;;;;;4.73;4.10;;;;;;;8.49;63.07;98872.09;6201447;28;20193;-67
2021/11/18 10:21:11;;;;;;;4.30;3.90;;;;;;;8.56;63.94;98862.97;6217901;28;20684;-66
2021/11/18 10:24:19;;;;;;;4.03;3.50;;;;;;;8.38;63.53;98866.59;6220373;28;20186;-65
2021/11/18 10:27:35;;;;;;;5.27;3.97;;;;;;;8.32;65.03;98861.63;6220457;28;20557;-65
2021/11/18 10:30:45;;;;;;;4.60;3.90;;;;;;;8.28;65.57;98853.03;6218054;28;20636;-66
2021/11/18 10:33:56;;;;;;;5.17;4.13;;;;;;;8.47;63.93;98850.31;6219556;28;20331;-65
2021/11/18 10:37:12;;;;;;;7.40;4.23;;;;;;;8.45;63.80;98854.81;6219410;28;20229;-66
2021/11/18 10:40:20;;;;;;;4.77;3.97;;;;;;;8.56;64.24;98844.56;6219299;28;20663;-68
2021/11/18 10:43:23;;;;;;;4.50;3.67;;;;;;;8.60;63.70;98839.97;6219119;28;20196;-65
2021/11/18 10:46:35;;;;;;;4.40;4.00;;;;;;;8.54;64.66;98835.03;6202981;28;20247;-66
2021/11/18 10:49:48;;;;;;;4.60;4.20;;;;;;;8.76;63.26;98839.06;6206704;28;20237;-65
2021/11/18 10:53:21;;;;;;;5.33;4.03;;;;;;;8.97;63.64;98836.19;6218894;28;20208;-65
2021/11/18 10:56:52;;;;;;;6.27;5.13;;;;;;;8.47;63.98;98842.41;6219441;28;20277;-65
2021/11/18 11:00:16;;;;;;;7.27;4.93;;;;;;;8.75;63.91;98847.91;6209069;28;20789;-65
2021/11/18 11:03:36;;;;;;;6.57;5.40;;;;;;;8.69;63.64;98842.94;6218821;28;20197;-65
2021/11/18 11:06:41;;;;;;;5.23;4.27;;;;;;;8.96;62.61;98842.41;6219363;28;20201;-65
2021/11/18 11:09:47;;;;;;;5.30;4.43;;;;;;;9.25;63.04;98836.34;6217963;28;20765;-67
2021/11/18 11:13:25;;;;;;;4.93;4.23;;;;;;;9.81;62.64;98829.59;6218399;28;20620;-66
2021/11/18 11:16:49;;;;;;;6.40;5.47;;;;;;;10.09;60.06;98816.44;6111138;29;20359;-67
2021/11/18 11:20:04;;;;;;;9.10;5.67;;;;;;;10.23;60.32;98823.56;6119287;29;20215;-66
2021/11/18 11:23:21;;;;;;;5.47;4.97;;;;;;;10.43;59.77;98827.63;6119592;29;20204;-65
2021/11/18 11:26:23;;;;;;;6.00;5.40;;;;;;;10.57;59.10;98828.50;6119762;29;20208;-66
2021/11/18 11:29:57;;;;;;;5.70;5.07;;;;;;;10.84;58.17;98838.28;6103597;29;21130;-65
2021/11/18 11:33:09;;;;;;;5.60;5.10;;;;;;;10.53;58.79;98839.34;6119247;29;20212;-67
2021/11/18 11:36:19;;;;;;;5.93;5.03;;;;;;;10.33;59.57;98843.19;6119196;29;20756;-66
2021/11/18 11:39:37;;;;;;;6.43;5.73;;;;;;;9.73;60.73;98848.50;6119592;29;20534;-66
2021/11/18 11:43:13;;;;;;;6.27;5.67;;;;;;;9.43;61.38;98851.09;6118684;29;20640;-66
2021/11/18 11:46:43;;;;;;;6.37;5.77;;;;;;;9.17;61.48;98851.75;6103605;29;20395;-65
2021/11/18 11:50:13;;;;;;;6.53;5.77;;;;;;;9.21;62.18;98856.72;6103061;29;20267;-66
2021/11/18 11:53:32;;;;;;;6.87;5.73;;;;;;;9.14;63.11;98852.75;6167867;28;20291;-66
2021/11/18 11:56:38;;;;;;;9.23;5.80;;;;;;;8.77;62.75;98858.34;6194171;28;20194;-66
2021/11/18 11:59:50;;;;;;;7.50;6.07;;;;;;;8.50;63.79;98847.50;6216907;28;20567;-65
2021/11/18 12:03:30;;;;;;;7.70;6.30;;;;;;;8.38;65.11;98830.59;6217796;28;20211;-66
2021/11/18 12:06:41;;;;;;;6.53;5.80;;;;;;;8.28;64.82;98826.72;6218127;28;20200;-66
2021/11/18 12:09:49;;;;;;;7.47;6.47;;;;;;;8.23;65.44;98820.00;6218252;28;20697;-66
2021/11/18 12:13:01;;;;;;;6.93;5.47;;;;;;;8.17;65.54;98817.69;6217479;28;20701;-67
2021/11/18 12:16:11;;;;;;;8.17;5.60;;;;;;;8.11;65.13;98813.59;6203300;28;20678;-69
2021/11/18 12:19:52;;;;;;;6.10;5.50;;;;;;;8.12;65.25;98812.66;6210044;28;20252;-66
2021/11/18 12:23:10;;;;;;;6.10;5.20;;;;;;;8.24;64.93;98819.06;6222380;28;20193;-66
2021/11/18 12:26:16;;;;;;;6.93;5.10;;;;;;;8.40;64.95;98807.69;6221583;28;20588;-67
2021/11/18 12:29:29;;;;;;;6.10;5.17;;;;;;;8.30;63.14;98813.47;6221025;28;20310;-66
2021/11/18 12:32:34;;;;;;;5.80;5.20;;;;;;;8.17;63.56;98812.44;6220700;28;20201;-65
2021/11/18 12:35:44;;;;;;;5.13;4.63;;;;;;;8.42;62.72;98794.44;6222115;28;20227;-66
2021/11/18 12:38:56;;;;;;;6.30;4.60;;;;;;;8.79;62.74;98788.88;6221034;28;20669;-68
2021/11/18 12:42:22;;;;;;;5.00;4.50;;;;;;;9.39;61.46;98775.81;6221529;28;20290;-65
2021/11/18 12:46:01;;;;;;;5.20;4.27;;;;;;;10.88;55.89;98763.19;6215024;28;20248;-66
2021/11/18 12:49:11;;;;;;;5.27;4.00;;;;;;;12.38;50.33;98749.50;6221735;28;20264;-66
2021/11/18 12:52:30;;;;;;;5.80;3.93;;;;;;;13.82;47.45;98738.84;6221781;28;20327;-66
2021/11/18 12:56:06;;;;;;;4.30;3.30;;;;;;;14.31;45.19;98743.00;6222115;28;20192;-66
2021/11/18 12:59:10;;;;;;;3.50;3.13;;;;;;;13.84;46.26;98750.19;6208179;28;20584;-67
2021/11/18 13:02:27;;;;;;;3.30;3.00;;;;;;;11.88;50.52;98780.31;6220151;28;20211;-65
2021/11/18 13:05:30;;;;;;;5.13;3.33;;;;;;;10.65;53.88;98770.78;6197231;28;20205;-65
2021/11/18 13:08:51;;;;;;;3.47;3.17;;;;;;;10.09;54.80;98773.41;6220264;28;20277;-65
2021/11/18 13:12:00;;;;;;;3.67;3.20;;;;;;;9.67;55.83;98776.84;6220750;28;20210;-65
2021/11/18 13:15:16;;;;;;;3.97;3.37;;;;;;;9.15;58.15;98782.50;6216125;28;20200;-66
2021/11/18 13:18:28;;;;;;;3.53;3.20;;;;;;;8.89;58.46;98795.31;6216155;28;20197;-66
2021/11/18 13:21:53;;;;;;;4.47;3.50;;;;;;;8.84;58.40;98802.66;6221076;28;20200;-66
2021/11/18 13:25:13;;;;;;;4.43;4.00;;;;;;;8.75;58.94;98800.53;6221586;28;20239;-65
2021/11/18 13:28:22;;;;;;;4.77;3.47;;;;;;;8.64;58.93;98823.09;6221243;28;20224;-67
2021/11/18 13:31:49;;;;;;;4.23;3.60;;;;;;;8.18;60.98;98807.09;6220103;28;20694;-66
2021/11/18 13:35:19;;;;;;;4.40;3.30;;;;;;;8.01;61.43;98817.63;6220834;28;20685;-65
2021/11/18 13:38:25;;;;;;;4.13;3.20;;;;;;;7.81;62.23;98805.50;6221093;28;20527;-66
2021/11/18 13:41:48;;;;;;;5.20;3.57;;;;;;;7.74;63.06;98812.03;6218968;28;20467;-66
2021/11/18 13:45:08;;;;;;;3.77;3.03;;;;;;;7.66;62.57;98814.19;6216717;28;20238;-68
2021/11/18 13:48:14;;;;;;;3.53;3.20;;;;;;;7.51;63.31;98812.31;6205791;28;20265;-66
2021/11/18 13:51:27;;;;;;;5.83;3.80;;;;;;;7.45;64.20;98810.00;6220339;28;20211;-66
2021/11/18 13:54:47;;;;;;;4.33;3.40;;;;;;;7.37;64.67;98828.78;6220734;28;20196;-66
2021/11/18 13:57:52;;;;;;;6.67;4.53;;;;;;;7.30;64.82;98828.19;6220152;28;20234;-66
2021/11/18 14:00:58;;;;;;;5.27;4.67;;;;;;;7.21;65.39;98828.66;6220528;28;20186;-65
2021/11/18 14:04:08;;;;;;;4.07;3.67;;;;;;;7.14;65.52;98829.88;6219982;28;20193;-66
2021/11/18 14:07:11;;;;;;;5.37;4.03;;;;;;;7.10;65.85;98830.09;6220417;28;20206;-65
2021/11/18 14:10:25;;;;;;;5.10;3.70;;;;;;;7.05;65.89;98825.06;6219799;28;20308;-70
2021/11/18 14:13:42;;;;;;;7.53;4.43;;;;;;;6.98;65.95;98829.78;6219791;28;20693;-67
2021/11/18 14:16:44;;;;;;;5.23;4.37;;;;;;;6.89;66.18;98821.44;6218405;28;20199;-65
2021/11/18 14:20:10;;;;;;;4.80;4.30;;;;;;;6.81;66.57;98813.09;6218546;28;20194;-67
2021/11/18 14:23:57;;;;;;;5.60;4.60;;;;;;;6.73;67.01;98823.09;6219574;28;20665;-65
2021/11/18 14:27:05;;;;;;;5.30;4.50;;;;;;;6.53;67.89;98831.88;6219590;28;20202;-66
2021/11/18 14:30:12;;;;;;;5.67;4.27;;;;;;;6.47;68.09;98825.16;6218436;28;20690;-66
2021/11/18 14:33:35;;;;;;;5.40;4.53;;;;;;;6.43;68.17;98831.47;6218989;28;20482;-66
2021/11/18 14:36:42;;;;;;;5.63;4.53;;;;;;;6.36;68.62;98816.94;6219961;28;20601;-66
2021/11/18 14:39:55;;;;;;;7.03;4.60;;;;;;;6.29;69.43;98813.72;6220066;28;20278;-66
2021/11/18 14:43:15;;;;;;;5.63;4.03;;;;;;;6.18;69.71;98830.88;6218752;28;20661;-66
2021/11/18 14:46:42;;;;;;;5.63;4.50;;;;;;;6.13;69.79;98840.69;6207897;28;20620;-66
2021/11/18 14:50:23;;;;;;;5.83;4.17;;;;;;;6.04;70.10;98836.69;6219082;28;20319;-66
2021/11/18 14:53:33;;;;;;;4.83;3.50;;;;;;;5.94;70.65;98843.25;6119779;29;20992;-67
2021/11/18 14:56:39;;;;;;;4.67;3.73;;;;;;;5.85;71.01;98838.38;6119901;29;20787;-67
2021/11/18 14:59:41;;;;;;;4.20;3.77;;;;;;;5.83;71.64;98840.22;6120241;29;20212;-68
2021/11/18 15:02:43;;;;;;;3.80;3.43;;;;;;;5.77;71.35;98833.47;6114834;29;20622;-67